sensor_id;sensor_type;location;lat;lon;timestamp;P1;durP1;ratioP1;P2;durP2;ratioP2
35592;SDS011;64447;52.140;5.602;2023-02-01T00:00:59;15.52;;;4.80;;
35592;SDS011;64447;52.140;5.602;2023-02-01T00:03:30;19.95;;;5.25;;
35592;SDS011;64447;52.140;5.602;2023-02-01T00:05:58;16.45;;;4.22;;
35592;SDS011;64447;52.140;5.602;2023-02-01T00:08:24;20.38;;;4.78;;
35592;SDS011;64447;52.140;5.602;2023-02-01T00:11:00;19.50;;;5.30;;
35592;SDS011;64447;52.140;5.602;2023-02-01T00:13:28;19.30;;;5.60;;
35592;SDS011;64447;52.140;5.602;2023-02-01T00:15:55;20.60;;;4.72;;
35592;SDS011;64447;52.140;5.602;2023-02-01T00:18:28;15.85;;;3.67;;
35592;SDS011;64447;52.140;5.602;2023-02-01T00:20:54;15.63;;;4.40;;
35592;SDS011;64447;52.140;5.602;2023-02-01T00:23:19;21.15;;;5.15;;
35592;SDS011;64447;52.140;5.602;2023-02-01T00:25:45;20.50;;;4.88;;
35592;SDS011;64447;52.140;5.602;2023-02-01T00:28:10;16.20;;;4.28;;
35592;SDS011;64447;52.140;5.602;2023-02-01T00:30:37;10.80;;;3.88;;
35592;SDS011;64447;52.140;5.602;2023-02-01T00:33:03;18.02;;;4.57;;
35592;SDS011;64447;52.140;5.602;2023-02-01T00:35:29;27.85;;;5.55;;
35592;SDS011;64447;52.140;5.602;2023-02-01T00:37:55;17.00;;;4.03;;
35592;SDS011;64447;52.140;5.602;2023-02-01T00:40:23;19.30;;;4.47;;
35592;SDS011;64447;52.140;5.602;2023-02-01T00:42:49;19.83;;;4.03;;
35592;SDS011;64447;52.140;5.602;2023-02-01T00:45:14;22.90;;;5.20;;
35592;SDS011;64447;52.140;5.602;2023-02-01T00:47:40;18.10;;;4.88;;
35592;SDS011;64447;52.140;5.602;2023-02-01T00:50:06;26.50;;;5.13;;
35592;SDS011;64447;52.140;5.602;2023-02-01T00:52:32;19.63;;;4.93;;
35592;SDS011;64447;52.140;5.602;2023-02-01T00:54:58;15.60;;;4.00;;
35592;SDS011;64447;52.140;5.602;2023-02-01T01:00:45;19.65;;;4.60;;
35592;SDS011;64447;52.140;5.602;2023-02-01T01:03:11;17.17;;;4.53;;
35592;SDS011;64447;52.140;5.602;2023-02-01T01:05:56;17.02;;;4.40;;
35592;SDS011;64447;52.140;5.602;2023-02-01T01:08:22;19.73;;;5.15;;
35592;SDS011;64447;52.140;5.602;2023-02-01T01:10:48;15.52;;;3.97;;
35592;SDS011;64447;52.140;5.602;2023-02-01T01:13:14;18.48;;;4.65;;
35592;SDS011;64447;52.140;5.602;2023-02-01T01:15:40;26.15;;;5.10;;
35592;SDS011;64447;52.140;5.602;2023-02-01T01:18:06;18.20;;;3.90;;
35592;SDS011;64447;52.140;5.602;2023-02-01T01:20:36;21.67;;;4.15;;
35592;SDS011;64447;52.140;5.602;2023-02-01T01:23:03;18.05;;;4.30;;
35592;SDS011;64447;52.140;5.602;2023-02-01T01:25:30;18.08;;;4.57;;
35592;SDS011;64447;52.140;5.602;2023-02-01T01:27:56;18.77;;;5.03;;
35592;SDS011;64447;52.140;5.602;2023-02-01T01:30:22;21.27;;;3.95;;
35592;SDS011;64447;52.140;5.602;2023-02-01T01:32:48;20.65;;;4.20;;
35592;SDS011;64447;52.140;5.602;2023-02-01T01:35:13;21.15;;;5.15;;
35592;SDS011;64447;52.140;5.602;2023-02-01T01:37:39;22.42;;;5.47;;
35592;SDS011;64447;52.140;5.602;2023-02-01T01:40:05;18.95;;;4.72;;
35592;SDS011;64447;52.140;5.602;2023-02-01T01:45:54;18.45;;;3.97;;
35592;SDS011;64447;52.140;5.602;2023-02-01T01:48:26;20.00;;;4.40;;
35592;SDS011;64447;52.140;5.602;2023-02-01T01:51:02;23.02;;;4.15;;
35592;SDS011;64447;52.140;5.602;2023-02-01T01:53:33;18.98;;;4.57;;
35592;SDS011;64447;52.140;5.602;2023-02-01T01:56:09;18.80;;;4.88;;
35592;SDS011;64447;52.140;5.602;2023-02-01T01:58:36;19.55;;;4.22;;
35592;SDS011;64447;52.140;5.602;2023-02-01T02:01:02;25.58;;;5.38;;
35592;SDS011;64447;52.140;5.602;2023-02-01T02:03:32;15.48;;;4.10;;
35592;SDS011;64447;52.140;5.602;2023-02-01T02:06:03;22.27;;;4.50;;
35592;SDS011;64447;52.140;5.602;2023-02-01T02:08:38;17.23;;;4.80;;
35592;SDS011;64447;52.140;5.602;2023-02-01T02:11:04;10.65;;;3.47;;
35592;SDS011;64447;52.140;5.602;2023-02-01T02:13:39;20.63;;;4.65;;
35592;SDS011;64447;52.140;5.602;2023-02-01T02:27:15;22.85;;;5.07;;
35592;SDS011;64447;52.140;5.602;2023-02-01T02:32:53;21.77;;;4.22;;
35592;SDS011;64447;52.140;5.602;2023-02-01T02:50:29;25.92;;;5.78;;
35592;SDS011;64447;52.140;5.602;2023-02-01T02:53:25;13.63;;;3.95;;
35592;SDS011;64447;52.140;5.602;2023-02-01T02:56:13;18.45;;;4.45;;
35592;SDS011;64447;52.140;5.602;2023-02-01T02:58:59;15.93;;;4.40;;
35592;SDS011;64447;52.140;5.602;2023-02-01T03:01:46;15.43;;;5.32;;
35592;SDS011;64447;52.140;5.602;2023-02-01T03:04:31;24.92;;;4.85;;
35592;SDS011;64447;52.140;5.602;2023-02-01T03:06:57;20.65;;;4.28;;
35592;SDS011;64447;52.140;5.602;2023-02-01T03:11:56;18.83;;;4.18;;
35592;SDS011;64447;52.140;5.602;2023-02-01T03:14:45;15.52;;;4.50;;
35592;SDS011;64447;52.140;5.602;2023-02-01T03:17:15;16.85;;;3.92;;
35592;SDS011;64447;52.140;5.602;2023-02-01T03:19:45;14.95;;;4.45;;
35592;SDS011;64447;52.140;5.602;2023-02-01T03:22:20;19.33;;;4.03;;
35592;SDS011;64447;52.140;5.602;2023-02-01T03:24:59;16.10;;;4.68;;
35592;SDS011;64447;52.140;5.602;2023-02-01T03:27:31;19.55;;;4.15;;
35592;SDS011;64447;52.140;5.602;2023-02-01T03:30:15;13.00;;;3.50;;
35592;SDS011;64447;52.140;5.602;2023-02-01T03:32:57;15.25;;;3.53;;
35592;SDS011;64447;52.140;5.602;2023-02-01T03:44:15;19.27;;;4.30;;
35592;SDS011;64447;52.140;5.602;2023-02-01T03:46:43;17.85;;;4.30;;
35592;SDS011;64447;52.140;5.602;2023-02-01T03:49:16;20.40;;;4.50;;
35592;SDS011;64447;52.140;5.602;2023-02-01T03:51:49;17.95;;;5.32;;
35592;SDS011;64447;52.140;5.602;2023-02-01T03:54:16;25.17;;;4.68;;
35592;SDS011;64447;52.140;5.602;2023-02-01T04:00:06;18.33;;;4.50;;
35592;SDS011;64447;52.140;5.602;2023-02-01T04:02:34;17.50;;;4.40;;
35592;SDS011;64447;52.140;5.602;2023-02-01T04:05:00;17.30;;;4.03;;
35592;SDS011;64447;52.140;5.602;2023-02-01T04:07:26;15.73;;;4.18;;
35592;SDS011;64447;52.140;5.602;2023-02-01T04:09:51;20.13;;;4.82;;
35592;SDS011;64447;52.140;5.602;2023-02-01T04:15:38;17.95;;;4.00;;
35592;SDS011;64447;52.140;5.602;2023-02-01T04:18:04;19.58;;;4.35;;
35592;SDS011;64447;52.140;5.602;2023-02-01T04:20:30;14.23;;;3.33;;
35592;SDS011;64447;52.140;5.602;2023-02-01T04:22:56;20.35;;;4.47;;
35592;SDS011;64447;52.140;5.602;2023-02-01T04:25:22;16.38;;;4.38;;
35592;SDS011;64447;52.140;5.602;2023-02-01T04:31:36;10.93;;;3.83;;
35592;SDS011;64447;52.140;5.602;2023-02-01T04:34:02;13.65;;;4.75;;
35592;SDS011;64447;52.140;5.602;2023-02-01T04:36:28;17.27;;;5.03;;
35592;SDS011;64447;52.140;5.602;2023-02-01T04:38:53;22.17;;;4.25;;
35592;SDS011;64447;52.140;5.602;2023-02-01T04:41:19;22.98;;;4.68;;
35592;SDS011;64447;52.140;5.602;2023-02-01T04:43:48;17.80;;;3.70;;
35592;SDS011;64447;52.140;5.602;2023-02-01T04:46:15;25.63;;;4.40;;
35592;SDS011;64447;52.140;5.602;2023-02-01T04:48:41;18.67;;;4.75;;
35592;SDS011;64447;52.140;5.602;2023-02-01T04:51:07;16.63;;;4.53;;
35592;SDS011;64447;52.140;5.602;2023-02-01T04:53:33;15.20;;;3.78;;
35592;SDS011;64447;52.140;5.602;2023-02-01T04:55:59;18.90;;;4.82;;
35592;SDS011;64447;52.140;5.602;2023-02-01T04:58:24;18.85;;;4.15;;
35592;SDS011;64447;52.140;5.602;2023-02-01T05:00:50;15.77;;;3.65;;
35592;SDS011;64447;52.140;5.602;2023-02-01T05:03:16;22.73;;;4.45;;
35592;SDS011;64447;52.140;5.602;2023-02-01T05:05:42;19.23;;;4.57;;
35592;SDS011;64447;52.140;5.602;2023-02-01T05:08:08;18.70;;;5.55;;
35592;SDS011;64447;52.140;5.602;2023-02-01T05:10:33;18.02;;;4.38;;
35592;SDS011;64447;52.140;5.602;2023-02-01T05:12:59;14.23;;;4.63;;
35592;SDS011;64447;52.140;5.602;2023-02-01T05:15:43;16.52;;;5.45;;
35592;SDS011;64447;52.140;5.602;2023-02-01T05:18:11;20.65;;;4.82;;
35592;SDS011;64447;52.140;5.602;2023-02-01T05:20:37;21.63;;;4.95;;
35592;SDS011;64447;52.140;5.602;2023-02-01T05:23:02;13.90;;;4.28;;
35592;SDS011;64447;52.140;5.602;2023-02-01T05:25:28;17.90;;;4.50;;
35592;SDS011;64447;52.140;5.602;2023-02-01T05:27:53;19.33;;;4.30;;
35592;SDS011;64447;52.140;5.602;2023-02-01T05:30:19;15.02;;;3.88;;
35592;SDS011;64447;52.140;5.602;2023-02-01T05:32:45;16.90;;;5.47;;
35592;SDS011;64447;52.140;5.602;2023-02-01T05:35:10;21.50;;;4.75;;
35592;SDS011;64447;52.140;5.602;2023-02-01T05:37:36;19.65;;;5.00;;
35592;SDS011;64447;52.140;5.602;2023-02-01T05:40:01;10.90;;;3.95;;
35592;SDS011;64447;52.140;5.602;2023-02-01T05:42:27;18.05;;;4.88;;
35592;SDS011;64447;52.140;5.602;2023-02-01T05:44:53;15.15;;;4.47;;
35592;SDS011;64447;52.140;5.602;2023-02-01T05:47:18;22.75;;;4.47;;
35592;SDS011;64447;52.140;5.602;2023-02-01T05:49:45;24.45;;;5.28;;
35592;SDS011;64447;52.140;5.602;2023-02-01T05:52:11;20.35;;;4.35;;
35592;SDS011;64447;52.140;5.602;2023-02-01T05:54:36;20.42;;;4.45;;
35592;SDS011;64447;52.140;5.602;2023-02-01T05:57:02;14.10;;;4.05;;
35592;SDS011;64447;52.140;5.602;2023-02-01T05:59:28;21.08;;;4.70;;
35592;SDS011;64447;52.140;5.602;2023-02-01T06:01:54;15.75;;;4.75;;
35592;SDS011;64447;52.140;5.602;2023-02-01T06:04:20;14.52;;;3.67;;
35592;SDS011;64447;52.140;5.602;2023-02-01T06:06:45;24.20;;;4.82;;
35592;SDS011;64447;52.140;5.602;2023-02-01T06:09:11;20.05;;;4.45;;
35592;SDS011;64447;52.140;5.602;2023-02-01T06:11:36;17.00;;;4.38;;
35592;SDS011;64447;52.140;5.602;2023-02-01T06:14:02;19.52;;;4.65;;
35592;SDS011;64447;52.140;5.602;2023-02-01T06:16:27;19.55;;;4.95;;
35592;SDS011;64447;52.140;5.602;2023-02-01T06:18:53;16.20;;;5.00;;
35592;SDS011;64447;52.140;5.602;2023-02-01T06:21:19;22.23;;;4.72;;
35592;SDS011;64447;52.140;5.602;2023-02-01T06:23:51;20.38;;;4.95;;
35592;SDS011;64447;52.140;5.602;2023-02-01T06:26:18;14.38;;;4.00;;
35592;SDS011;64447;52.140;5.602;2023-02-01T06:28:43;20.73;;;4.57;;
35592;SDS011;64447;52.140;5.602;2023-02-01T06:31:09;20.20;;;4.70;;
35592;SDS011;64447;52.140;5.602;2023-02-01T06:33:35;17.35;;;4.20;;
35592;SDS011;64447;52.140;5.602;2023-02-01T06:36:02;23.52;;;5.50;;
35592;SDS011;64447;52.140;5.602;2023-02-01T06:38:30;14.32;;;4.18;;
35592;SDS011;64447;52.140;5.602;2023-02-01T06:40:56;17.77;;;4.35;;
35592;SDS011;64447;52.140;5.602;2023-02-01T06:46:44;19.75;;;4.18;;
35592;SDS011;64447;52.140;5.602;2023-02-01T06:49:10;19.05;;;4.85;;
35592;SDS011;64447;52.140;5.602;2023-02-01T06:51:35;19.77;;;5.13;;
35592;SDS011;64447;52.140;5.602;2023-02-01T06:54:01;18.13;;;5.07;;
35592;SDS011;64447;52.140;5.602;2023-02-01T06:56:26;23.05;;;5.25;;
35592;SDS011;64447;52.140;5.602;2023-02-01T06:58:52;22.42;;;4.90;;
35592;SDS011;64447;52.140;5.602;2023-02-01T07:01:18;17.42;;;5.03;;
35592;SDS011;64447;52.140;5.602;2023-02-01T07:03:48;16.40;;;4.90;;
35592;SDS011;64447;52.140;5.602;2023-02-01T07:06:15;20.63;;;4.65;;
35592;SDS011;64447;52.140;5.602;2023-02-01T07:08:42;24.55;;;5.38;;
35592;SDS011;64447;52.140;5.602;2023-02-01T07:11:09;21.20;;;5.60;;
35592;SDS011;64447;52.140;5.602;2023-02-01T07:16:58;13.40;;;4.28;;
35592;SDS011;64447;52.140;5.602;2023-02-01T07:19:23;19.08;;;4.75;;
35592;SDS011;64447;52.140;5.602;2023-02-01T07:21:49;25.05;;;5.72;;
35592;SDS011;64447;52.140;5.602;2023-02-01T07:24:14;21.42;;;4.22;;
35592;SDS011;64447;52.140;5.602;2023-02-01T07:26:40;20.48;;;4.88;;
35592;SDS011;64447;52.140;5.602;2023-02-01T07:29:06;17.55;;;4.10;;
35592;SDS011;64447;52.140;5.602;2023-02-01T07:31:31;17.17;;;3.72;;
35592;SDS011;64447;52.140;5.602;2023-02-01T07:33:57;22.33;;;4.90;;
35592;SDS011;64447;52.140;5.602;2023-02-01T07:36:23;19.92;;;5.10;;
35592;SDS011;64447;52.140;5.602;2023-02-01T07:38:49;17.40;;;4.45;;
35592;SDS011;64447;52.140;5.602;2023-02-01T07:41:16;15.82;;;4.35;;
35592;SDS011;64447;52.140;5.602;2023-02-01T07:47:04;16.92;;;4.03;;
35592;SDS011;64447;52.140;5.602;2023-02-01T07:49:30;24.98;;;4.43;;
35592;SDS011;64447;52.140;5.602;2023-02-01T07:51:55;24.40;;;5.72;;
35592;SDS011;64447;52.140;5.602;2023-02-01T07:54:21;17.30;;;4.32;;
35592;SDS011;64447;52.140;5.602;2023-02-01T07:56:46;19.52;;;5.85;;
35592;SDS011;64447;52.140;5.602;2023-02-01T07:59:12;19.13;;;6.18;;
35592;SDS011;64447;52.140;5.602;2023-02-01T08:01:37;19.33;;;6.00;;
35592;SDS011;64447;52.140;5.602;2023-02-01T08:04:03;17.45;;;4.53;;
35592;SDS011;64447;52.140;5.602;2023-02-01T08:06:30;15.75;;;4.97;;
35592;SDS011;64447;52.140;5.602;2023-02-01T08:08:57;14.52;;;4.38;;
35592;SDS011;64447;52.140;5.602;2023-02-01T08:11:23;17.15;;;5.45;;
35592;SDS011;64447;52.140;5.602;2023-02-01T08:17:11;20.52;;;4.88;;
35592;SDS011;64447;52.140;5.602;2023-02-01T08:19:37;18.40;;;5.30;;
35592;SDS011;64447;52.140;5.602;2023-02-01T08:22:03;16.88;;;3.45;;
35592;SDS011;64447;52.140;5.602;2023-02-01T08:24:32;19.70;;;4.38;;
35592;SDS011;64447;52.140;5.602;2023-02-01T08:27:00;23.38;;;4.72;;
35592;SDS011;64447;52.140;5.602;2023-02-01T08:29:26;20.58;;;4.82;;
35592;SDS011;64447;52.140;5.602;2023-02-01T08:31:52;19.25;;;5.05;;
35592;SDS011;64447;52.140;5.602;2023-02-01T08:34:19;13.45;;;4.35;;
35592;SDS011;64447;52.140;5.602;2023-02-01T08:36:44;16.23;;;4.00;;
35592;SDS011;64447;52.140;5.602;2023-02-01T08:39:10;16.33;;;4.10;;
35592;SDS011;64447;52.140;5.602;2023-02-01T08:41:36;16.83;;;4.93;;
35592;SDS011;64447;52.140;5.602;2023-02-01T08:44:02;15.82;;;4.45;;
35592;SDS011;64447;52.140;5.602;2023-02-01T08:46:28;17.13;;;4.28;;
35592;SDS011;64447;52.140;5.602;2023-02-01T08:48:53;20.27;;;5.03;;
35592;SDS011;64447;52.140;5.602;2023-02-01T08:51:20;18.83;;;4.53;;
35592;SDS011;64447;52.140;5.602;2023-02-01T08:53:47;17.55;;;4.28;;
35592;SDS011;64447;52.140;5.602;2023-02-01T08:56:13;17.50;;;4.18;;
35592;SDS011;64447;52.140;5.602;2023-02-01T09:02:02;16.40;;;3.60;;
35592;SDS011;64447;52.140;5.602;2023-02-01T09:04:27;17.10;;;3.83;;
35592;SDS011;64447;52.140;5.602;2023-02-01T09:06:53;16.73;;;4.10;;
35592;SDS011;64447;52.140;5.602;2023-02-01T09:09:20;18.63;;;4.82;;
35592;SDS011;64447;52.140;5.602;2023-02-01T09:11:46;14.60;;;4.72;;
35592;SDS011;64447;52.140;5.602;2023-02-01T09:14:12;18.70;;;4.65;;
35592;SDS011;64447;52.140;5.602;2023-02-01T09:16:37;13.50;;;4.40;;
35592;SDS011;64447;52.140;5.602;2023-02-01T09:19:03;19.85;;;3.88;;
35592;SDS011;64447;52.140;5.602;2023-02-01T09:21:29;17.35;;;3.90;;
35592;SDS011;64447;52.140;5.602;2023-02-01T09:23:54;14.07;;;4.35;;
35592;SDS011;64447;52.140;5.602;2023-02-01T09:26:21;14.50;;;4.30;;
35592;SDS011;64447;52.140;5.602;2023-02-01T09:32:08;21.35;;;3.95;;
35592;SDS011;64447;52.140;5.602;2023-02-01T09:34:34;12.40;;;4.18;;
35592;SDS011;64447;52.140;5.602;2023-02-01T09:37:00;15.27;;;3.95;;
35592;SDS011;64447;52.140;5.602;2023-02-01T09:39:26;11.75;;;3.75;;
35592;SDS011;64447;52.140;5.602;2023-02-01T09:44:46;18.35;;;4.10;;
35592;SDS011;64447;52.140;5.602;2023-02-01T09:47:28;17.75;;;3.78;;
35592;SDS011;64447;52.140;5.602;2023-02-01T09:50:02;19.67;;;3.47;;
35592;SDS011;64447;52.140;5.602;2023-02-01T09:52:45;15.48;;;4.28;;
35592;SDS011;64447;52.140;5.602;2023-02-01T10:00:53;17.45;;;4.05;;
35592;SDS011;64447;52.140;5.602;2023-02-01T10:03:23;14.68;;;4.00;;
35592;SDS011;64447;52.140;5.602;2023-02-01T10:11:13;12.88;;;3.97;;
35592;SDS011;64447;52.140;5.602;2023-02-01T10:14:04;15.27;;;3.90;;
35592;SDS011;64447;52.140;5.602;2023-02-01T10:19:47;18.67;;;3.92;;
35592;SDS011;64447;52.140;5.602;2023-02-01T10:22:30;23.20;;;4.68;;
35592;SDS011;64447;52.140;5.602;2023-02-01T10:25:19;17.15;;;4.28;;
35592;SDS011;64447;52.140;5.602;2023-02-01T10:31:10;23.40;;;5.03;;
35592;SDS011;64447;52.140;5.602;2023-02-01T10:33:58;14.10;;;3.72;;
35592;SDS011;64447;52.140;5.602;2023-02-01T10:36:31;18.63;;;4.07;;
35592;SDS011;64447;52.140;5.602;2023-02-01T10:39:04;15.38;;;4.60;;
35592;SDS011;64447;52.140;5.602;2023-02-01T10:41:33;17.30;;;4.28;;
35592;SDS011;64447;52.140;5.602;2023-02-01T10:47:23;16.92;;;4.03;;
35592;SDS011;64447;52.140;5.602;2023-02-01T10:52:33;20.77;;;5.05;;
35592;SDS011;64447;52.140;5.602;2023-02-01T10:58:18;12.80;;;3.55;;
35592;SDS011;64447;52.140;5.602;2023-02-01T11:00:47;20.90;;;4.68;;
35592;SDS011;64447;52.140;5.602;2023-02-01T11:05:56;21.23;;;4.25;;
35592;SDS011;64447;52.140;5.602;2023-02-01T11:08:21;22.88;;;4.47;;
35592;SDS011;64447;52.140;5.602;2023-02-01T11:10:49;17.52;;;4.65;;
35592;SDS011;64447;52.140;5.602;2023-02-01T11:13:24;16.90;;;3.75;;
35592;SDS011;64447;52.140;5.602;2023-02-01T11:15:55;15.23;;;4.07;;
35592;SDS011;64447;52.140;5.602;2023-02-01T11:18:26;16.33;;;4.20;;
35592;SDS011;64447;52.140;5.602;2023-02-01T11:20:53;16.38;;;4.05;;
35592;SDS011;64447;52.140;5.602;2023-02-01T11:23:24;18.45;;;4.90;;
35592;SDS011;64447;52.140;5.602;2023-02-01T11:25:55;19.42;;;4.03;;
35592;SDS011;64447;52.140;5.602;2023-02-01T11:28:26;17.17;;;4.15;;
35592;SDS011;64447;52.140;5.602;2023-02-01T11:30:56;17.58;;;4.45;;
35592;SDS011;64447;52.140;5.602;2023-02-01T11:33:25;18.55;;;4.32;;
35592;SDS011;64447;52.140;5.602;2023-02-01T11:35:55;22.77;;;4.53;;
35592;SDS011;64447;52.140;5.602;2023-02-01T11:40:51;20.75;;;4.47;;
35592;SDS011;64447;52.140;5.602;2023-02-01T11:43:24;20.98;;;3.85;;
35592;SDS011;64447;52.140;5.602;2023-02-01T11:46:02;15.00;;;3.90;;
35592;SDS011;64447;52.140;5.602;2023-02-01T11:48:32;20.77;;;4.10;;
35592;SDS011;64447;52.140;5.602;2023-02-01T11:51:13;20.20;;;4.35;;
35592;SDS011;64447;52.140;5.602;2023-02-01T11:54:23;22.13;;;4.10;;
35592;SDS011;64447;52.140;5.602;2023-02-01T11:57:25;16.25;;;4.68;;
35592;SDS011;64447;52.140;5.602;2023-02-01T12:00:25;23.98;;;5.25;;
35592;SDS011;64447;52.140;5.602;2023-02-01T12:05:17;15.18;;;3.92;;
35592;SDS011;64447;52.140;5.602;2023-02-01T12:19:45;19.13;;;4.32;;
35592;SDS011;64447;52.140;5.602;2023-02-01T12:44:24;15.93;;;4.25;;
35592;SDS011;64447;52.140;5.602;2023-02-01T12:47:06;20.25;;;3.70;;
35592;SDS011;64447;52.140;5.602;2023-02-01T12:58:06;17.05;;;4.03;;
35592;SDS011;64447;52.140;5.602;2023-02-01T13:06:49;17.05;;;4.10;;
35592;SDS011;64447;52.140;5.602;2023-02-01T13:09:21;22.02;;;4.45;;
35592;SDS011;64447;52.140;5.602;2023-02-01T13:17:59;13.95;;;4.20;;
35592;SDS011;64447;52.140;5.602;2023-02-01T13:20:31;20.20;;;3.72;;
35592;SDS011;64447;52.140;5.602;2023-02-01T13:23:05;18.58;;;4.32;;
35592;SDS011;64447;52.140;5.602;2023-02-01T13:25:48;21.85;;;3.95;;
35592;SDS011;64447;52.140;5.602;2023-02-01T13:28:16;13.23;;;3.75;;
35592;SDS011;64447;52.140;5.602;2023-02-01T13:36:13;22.13;;;4.20;;
35592;SDS011;64447;52.140;5.602;2023-02-01T13:47:42;14.40;;;4.30;;
35592;SDS011;64447;52.140;5.602;2023-02-01T13:52:56;17.58;;;3.72;;
35592;SDS011;64447;52.140;5.602;2023-02-01T13:55:28;15.30;;;3.95;;
35592;SDS011;64447;52.140;5.602;2023-02-01T13:58:01;17.20;;;3.75;;
35592;SDS011;64447;52.140;5.602;2023-02-01T14:13:30;13.65;;;3.75;;
35592;SDS011;64447;52.140;5.602;2023-02-01T14:16:15;13.93;;;3.63;;
35592;SDS011;64447;52.140;5.602;2023-02-01T14:23:47;12.27;;;3.70;;
35592;SDS011;64447;52.140;5.602;2023-02-01T14:32:26;18.50;;;4.10;;
35592;SDS011;64447;52.140;5.602;2023-02-01T14:34:56;21.42;;;4.55;;
35592;SDS011;64447;52.140;5.602;2023-02-01T14:37:27;18.67;;;4.35;;
35592;SDS011;64447;52.140;5.602;2023-02-01T14:40:01;20.67;;;5.75;;
35592;SDS011;64447;52.140;5.602;2023-02-01T14:50:55;17.30;;;4.32;;
35592;SDS011;64447;52.140;5.602;2023-02-01T14:53:25;17.17;;;4.35;;
35592;SDS011;64447;52.140;5.602;2023-02-01T14:58:47;15.15;;;4.40;;
35592;SDS011;64447;52.140;5.602;2023-02-01T15:05:30;25.67;;;4.88;;
35592;SDS011;64447;52.140;5.602;2023-02-01T15:08:19;23.80;;;5.25;;
35592;SDS011;64447;52.140;5.602;2023-02-01T15:10:47;14.48;;;2.90;;
35592;SDS011;64447;52.140;5.602;2023-02-01T15:13:20;7.95;;;2.95;;
35592;SDS011;64447;52.140;5.602;2023-02-01T15:19:12;16.25;;;2.70;;
35592;SDS011;64447;52.140;5.602;2023-02-01T15:21:44;12.73;;;2.88;;
35592;SDS011;64447;52.140;5.602;2023-02-01T15:24:13;9.18;;;2.28;;
35592;SDS011;64447;52.140;5.602;2023-02-01T15:26:44;12.30;;;2.72;;
35592;SDS011;64447;52.140;5.602;2023-02-01T15:29:11;13.45;;;3.13;;
35592;SDS011;64447;52.140;5.602;2023-02-01T15:31:38;11.35;;;3.10;;
35592;SDS011;64447;52.140;5.602;2023-02-01T15:34:07;16.48;;;3.15;;
35592;SDS011;64447;52.140;5.602;2023-02-01T15:36:33;17.08;;;3.78;;
35592;SDS011;64447;52.140;5.602;2023-02-01T15:44:34;16.48;;;3.55;;
35592;SDS011;64447;52.140;5.602;2023-02-01T15:47:12;14.23;;;3.83;;
35592;SDS011;64447;52.140;5.602;2023-02-01T15:49:43;18.30;;;4.53;;
35592;SDS011;64447;52.140;5.602;2023-02-01T15:52:35;18.35;;;5.00;;
35592;SDS011;64447;52.140;5.602;2023-02-01T15:55:00;21.88;;;6.50;;
35592;SDS011;64447;52.140;5.602;2023-02-01T15:57:33;24.88;;;10.30;;
35592;SDS011;64447;52.140;5.602;2023-02-01T16:00:04;20.70;;;5.25;;
35592;SDS011;64447;52.140;5.602;2023-02-01T16:02:37;23.42;;;5.30;;
35592;SDS011;64447;52.140;5.602;2023-02-01T16:07:59;30.52;;;22.10;;
35592;SDS011;64447;52.140;5.602;2023-02-01T16:10:40;16.55;;;6.22;;
35592;SDS011;64447;52.140;5.602;2023-02-01T16:13:07;20.70;;;6.93;;
35592;SDS011;64447;52.140;5.602;2023-02-01T16:15:33;22.98;;;6.30;;
35592;SDS011;64447;52.140;5.602;2023-02-01T16:17:59;19.30;;;4.47;;
35592;SDS011;64447;52.140;5.602;2023-02-01T16:20:24;19.83;;;5.78;;
35592;SDS011;64447;52.140;5.602;2023-02-01T16:22:50;17.45;;;5.22;;
35592;SDS011;64447;52.140;5.602;2023-02-01T16:25:15;19.70;;;5.13;;
35592;SDS011;64447;52.140;5.602;2023-02-01T16:27:41;23.50;;;4.82;;
35592;SDS011;64447;52.140;5.602;2023-02-01T16:30:07;27.60;;;5.97;;
35592;SDS011;64447;52.140;5.602;2023-02-01T16:32:34;15.80;;;4.50;;
35592;SDS011;64447;52.140;5.602;2023-02-01T16:35:05;18.33;;;5.70;;
35592;SDS011;64447;52.140;5.602;2023-02-01T16:37:38;20.52;;;5.82;;
35592;SDS011;64447;52.140;5.602;2023-02-01T16:40:03;18.20;;;5.60;;
35592;SDS011;64447;52.140;5.602;2023-02-01T16:42:29;16.85;;;5.95;;
35592;SDS011;64447;52.140;5.602;2023-02-01T16:44:55;12.70;;;4.95;;
35592;SDS011;64447;52.140;5.602;2023-02-01T16:47:21;18.05;;;5.18;;
35592;SDS011;64447;52.140;5.602;2023-02-01T16:49:47;17.40;;;5.40;;
35592;SDS011;64447;52.140;5.602;2023-02-01T16:52:15;24.88;;;4.85;;
35592;SDS011;64447;52.140;5.602;2023-02-01T16:54:43;22.98;;;5.20;;
35592;SDS011;64447;52.140;5.602;2023-02-01T16:57:12;15.57;;;4.90;;
35592;SDS011;64447;52.140;5.602;2023-02-01T16:59:39;21.63;;;4.60;;
35592;SDS011;64447;52.140;5.602;2023-02-01T17:05:27;18.58;;;6.07;;
35592;SDS011;64447;52.140;5.602;2023-02-01T17:07:53;23.73;;;5.60;;
35592;SDS011;64447;52.140;5.602;2023-02-01T17:10:22;19.17;;;5.28;;
35592;SDS011;64447;52.140;5.602;2023-02-01T17:12:51;20.13;;;5.22;;
35592;SDS011;64447;52.140;5.602;2023-02-01T17:15:16;23.17;;;6.28;;
35592;SDS011;64447;52.140;5.602;2023-02-01T17:17:42;22.95;;;5.57;;
35592;SDS011;64447;52.140;5.602;2023-02-01T17:20:17;21.58;;;5.20;;
35592;SDS011;64447;52.140;5.602;2023-02-01T17:22:45;18.73;;;5.03;;
35592;SDS011;64447;52.140;5.602;2023-02-01T17:25:18;20.98;;;6.10;;
35592;SDS011;64447;52.140;5.602;2023-02-01T17:27:46;18.88;;;5.38;;
35592;SDS011;64447;52.140;5.602;2023-02-01T17:30:12;19.08;;;5.15;;
35592;SDS011;64447;52.140;5.602;2023-02-01T17:32:38;17.55;;;5.50;;
35592;SDS011;64447;52.140;5.602;2023-02-01T17:35:05;19.10;;;5.38;;
35592;SDS011;64447;52.140;5.602;2023-02-01T17:37:38;19.23;;;5.60;;
35592;SDS011;64447;52.140;5.602;2023-02-01T17:40:04;21.27;;;5.50;;
35592;SDS011;64447;52.140;5.602;2023-02-01T17:42:30;20.45;;;5.05;;
35592;SDS011;64447;52.140;5.602;2023-02-01T17:44:57;22.52;;;6.55;;
35592;SDS011;64447;52.140;5.602;2023-02-01T17:50:48;26.15;;;5.95;;
35592;SDS011;64447;52.140;5.602;2023-02-01T17:53:25;17.38;;;5.75;;
35592;SDS011;64447;52.140;5.602;2023-02-01T17:55:52;16.30;;;5.30;;
35592;SDS011;64447;52.140;5.602;2023-02-01T17:58:18;51.60;;;17.70;;
35592;SDS011;64447;52.140;5.602;2023-02-01T18:00:45;140.05;;;47.05;;
35592;SDS011;64447;52.140;5.602;2023-02-01T18:03:25;167.70;;;61.85;;
35592;SDS011;64447;52.140;5.602;2023-02-01T18:05:54;134.60;;;51.63;;
35592;SDS011;64447;52.140;5.602;2023-02-01T18:08:24;32.67;;;11.50;;
35592;SDS011;64447;52.140;5.602;2023-02-01T18:10:52;61.03;;;33.92;;
35592;SDS011;64447;52.140;5.602;2023-02-01T18:13:26;21.70;;;5.35;;
35592;SDS011;64447;52.140;5.602;2023-02-01T18:15:52;24.33;;;5.55;;
35592;SDS011;64447;52.140;5.602;2023-02-01T18:18:19;14.82;;;4.10;;
35592;SDS011;64447;52.140;5.602;2023-02-01T18:20:45;10.63;;;3.42;;
35592;SDS011;64447;52.140;5.602;2023-02-01T18:23:15;12.13;;;5.70;;
35592;SDS011;64447;52.140;5.602;2023-02-01T18:25:44;11.77;;;3.95;;
35592;SDS011;64447;52.140;5.602;2023-02-01T18:28:11;9.10;;;2.85;;
35592;SDS011;64447;52.140;5.602;2023-02-01T18:30:41;15.70;;;8.07;;
35592;SDS011;64447;52.140;5.602;2023-02-01T18:33:12;14.15;;;3.25;;
35592;SDS011;64447;52.140;5.602;2023-02-01T18:35:39;12.73;;;2.80;;
35592;SDS011;64447;52.140;5.602;2023-02-01T18:38:05;11.75;;;3.88;;
35592;SDS011;64447;52.140;5.602;2023-02-01T18:40:35;10.35;;;3.40;;
35592;SDS011;64447;52.140;5.602;2023-02-01T18:43:04;13.60;;;7.30;;
35592;SDS011;64447;52.140;5.602;2023-02-01T18:45:37;8.15;;;3.22;;
35592;SDS011;64447;52.140;5.602;2023-02-01T18:51:26;9.93;;;3.53;;
35592;SDS011;64447;52.140;5.602;2023-02-01T18:53:51;9.73;;;3.70;;